Time;durP1;ratioP1;P1;durP2;ratioP2;P2;SDS_P1;SDS_P2;PMS_P1;PMS_P2;Temp;Humidity;BMP_temperature;BMP_pressure;BME280_temperature;BME280_humidity;BME280_pressure;Samples;Min_cycle;Max_cycle;Signal;HPM_P1;HPM_P2
2023/02/19 00:02:16;;;;;;;7.00;2.90;;;;;;;7.36;100.00;96744.56;6192981;23;20023;-88
2023/02/19 00:04:46;;;;;;;5.70;3.40;;;;;;;7.33;100.00;96738.59;6193103;23;20031;-88
2023/02/19 00:07:12;;;;;;;5.33;3.50;;;;;;;7.27;100.00;96733.03;6218391;23;20027;-88
2023/02/19 00:09:38;;;;;;;7.73;4.20;;;;;;;7.30;100.00;96736.25;6193763;23;20008;-87
2023/02/19 00:12:09;;;;;;;8.00;4.43;;;;;;;7.33;100.00;96737.78;6194318;23;20019;-88
2023/02/19 00:14:39;;;;;;;10.23;4.30;;;;;;;7.40;100.00;96736.31;6219616;23;20070;-87
2023/02/19 00:17:05;;;;;;;10.57;5.43;;;;;;;7.32;100.00;96728.28;6218388;23;20616;-87
2023/02/19 00:19:51;;;;;;;7.77;4.43;;;;;;;7.34;100.00;96734.19;6193288;23;20015;-87
2023/02/19 00:22:20;;;;;;;5.33;3.30;;;;;;;7.35;100.00;96732.44;6218348;23;20452;-87
2023/02/19 00:25:02;;;;;;;9.83;5.43;;;;;;;7.36;100.00;96731.47;6194369;23;20063;-88
2023/02/19 00:27:27;;;;;;;9.00;5.00;;;;;;;7.39;100.00;96723.38;6193651;23;20016;-88
2023/02/19 00:29:53;;;;;;;12.73;5.57;;;;;;;7.35;100.00;96727.22;6194211;23;20081;-88
2023/02/19 00:32:19;;;;;;;10.37;5.67;;;;;;;7.31;100.00;96727.47;6219388;23;20023;-88
2023/02/19 00:34:44;;;;;;;16.13;8.80;;;;;;;7.39;100.00;96728.59;6219858;23;20004;-88
2023/02/19 00:37:10;;;;;;;18.83;12.63;;;;;;;7.36;100.00;96723.63;6194203;23;20016;-87
2023/02/19 00:39:38;;;;;;;26.63;18.77;;;;;;;7.32;100.00;96729.09;6195633;23;20008;-86
2023/02/19 00:42:04;;;;;;;9.43;6.33;;;;;;;7.42;100.00;96723.13;6218017;23;20016;-87
2023/02/19 00:44:29;;;;;;;14.13;8.00;;;;;;;7.28;100.00;96727.72;6209225;23;20166;-87
2023/02/19 00:46:56;;;;;;;10.50;7.00;;;;;;;7.34;100.00;96726.34;6222103;23;20433;-87
2023/02/19 00:49:23;;;;;;;6.67;4.50;;;;;;;7.31;100.00;96722.22;6194014;23;20564;-87
2023/02/19 00:51:51;;;;;;;6.23;4.07;;;;;;;7.32;100.00;96728.28;6219608;23;20036;-87
2023/02/19 00:54:18;;;;;;;7.20;4.53;;;;;;;7.38;100.00;96732.16;6219977;23;20066;-87
2023/02/19 00:56:46;;;;;;;7.50;4.63;;;;;;;7.36;100.00;96731.47;6235573;23;19999;-87
2023/02/19 00:59:19;;;;;;;9.17;4.60;;;;;;;7.33;100.00;96736.00;6194582;23;20004;-86
2023/02/19 01:01:45;;;;;;;9.40;5.80;;;;;;;7.35;100.00;96727.22;6193157;23;20016;-87
2023/02/19 01:04:16;;;;;;;7.93;4.40;;;;;;;7.39;100.00;96728.59;6193427;23;20034;-87
2023/02/19 01:06:41;;;;;;;8.60;4.97;;;;;;;7.37;100.00;96725.28;6217646;23;20024;-87
2023/02/19 01:09:07;;;;;;;7.87;4.00;;;;;;;7.38;100.00;96717.31;6218137;23;20023;-87
2023/02/19 01:11:33;;;;;;;10.13;5.30;;;;;;;7.41;100.00;96716.19;6193281;23;20030;-87
2023/02/19 01:14:02;;;;;;;8.30;5.27;;;;;;;7.39;100.00;96707.66;6192372;23;20016;-87
2023/02/19 01:16:29;;;;;;;8.80;5.53;;;;;;;7.43;100.00;96709.06;6193313;23;20466;-87
2023/02/19 01:18:56;;;;;;;8.80;5.27;;;;;;;7.41;100.00;96688.28;6218754;23;20095;-93
2023/02/19 01:21:25;;;;;;;7.30;5.10;;;;;;;7.42;100.00;96683.88;6192764;23;20027;-93
2023/02/19 01:23:52;;;;;;;8.17;5.03;;;;;;;7.42;100.00;96676.84;6193704;23;20004;-93
2023/02/19 01:26:22;;;;;;;7.03;4.87;;;;;;;7.43;100.00;96677.66;6194700;23;20027;-93
2023/02/19 01:28:50;;;;;;;7.70;4.60;;;;;;;7.39;100.00;96674.47;6218016;23;20097;-93
2023/02/19 01:31:21;;;;;;;11.03;5.63;;;;;;;7.45;100.00;96670.53;6193711;23;20016;-93
2023/02/19 01:33:59;;;;;;;8.53;5.50;;;;;;;7.50;100.00;96676.19;6193890;23;20016;-94
2023/02/19 01:36:26;;;;;;;7.87;5.60;;;;;;;7.48;100.00;96672.88;6194090;23;20359;-93
2023/02/19 01:38:52;;;;;;;8.43;5.70;;;;;;;7.42;100.00;96655.91;6219489;23;20019;-93
2023/02/19 01:41:21;;;;;;;7.83;5.30;;;;;;;7.40;100.00;96639.50;6194125;23;20352;-93
2023/02/19 01:44:02;;;;;;;8.10;5.00;;;;;;;7.44;100.00;96616.53;6217866;23;20078;-93
2023/02/19 01:46:36;;;;;;;8.40;5.30;;;;;;;7.47;100.00;96631.97;6193200;23;20089;-93
2023/02/19 01:49:33;;;;;;;9.10;5.90;;;;;;;7.43;100.00;96646.25;6193692;23;20105;-93
2023/02/19 01:52:04;;;;;;;8.43;5.73;;;;;;;7.45;100.00;96646.97;6194525;23;20027;-93
2023/02/19 01:54:35;;;;;;;9.27;6.47;;;;;;;7.48;100.00;96650.16;6220559;23;20008;-93
2023/02/19 01:57:06;;;;;;;9.27;5.90;;;;;;;7.48;100.00;96644.94;6197801;23;20012;-93
2023/02/19 01:59:33;;;;;;;8.33;5.40;;;;;;;7.47;100.00;96621.50;6220881;23;20012;-93
2023/02/19 02:02:03;;;;;;;8.30;6.07;;;;;;;7.41;100.00;96616.78;6221286;23;20020;-93
2023/02/19 02:04:31;;;;;;;8.63;5.23;;;;;;;7.44;100.00;96634.84;6195488;23;20073;-93
2023/02/19 02:12:36;;;;;;;8.73;5.67;;;;;;;7.40;100.00;96633.44;6220498;23;20065;-93
2023/02/19 02:15:03;;;;;;;9.23;6.37;;;;;;;7.37;100.00;96631.09;6195120;23;20042;-93
2023/02/19 02:17:53;;;;;;;8.37;5.10;;;;;;;7.42;100.00;96628.91;6193990;23;20003;-93
2023/02/19 02:20:34;;;;;;;7.97;5.07;;;;;;;7.40;100.00;96625.59;6193674;23;20055;-93
2023/02/19 02:23:03;;;;;;;7.90;5.30;;;;;;;7.40;100.00;96612.50;6195847;23;20015;-93
2023/02/19 02:25:32;;;;;;;7.67;5.23;;;;;;;7.37;100.00;96615.38;6221188;23;20087;-93
2023/02/19 02:28:40;;;;;;;7.30;5.07;;;;;;;7.39;100.00;96616.09;6195254;23;20019;-93
2023/02/19 02:31:21;;;;;;;7.60;4.93;;;;;;;7.45;100.00;96610.34;6200759;23;20066;-93
2023/02/19 02:33:55;;;;;;;5.00;3.23;;;;;;;7.40;100.00;96607.28;6196330;23;20012;-93
2023/02/19 02:36:26;;;;;;;7.43;4.63;;;;;;;7.43;100.00;96604.41;6195158;23;20012;-93
2023/02/19 02:38:53;;;;;;;6.50;4.37;;;;;;;7.44;100.00;96611.28;6198034;23;20050;-93
2023/02/19 02:41:21;;;;;;;6.63;4.77;;;;;;;7.42;100.00;96615.84;6205885;23;20004;-93
2023/02/19 02:43:46;;;;;;;6.20;3.77;;;;;;;7.38;100.00;96617.88;6212413;23;20012;-93
2023/02/19 02:46:20;;;;;;;6.57;4.13;;;;;;;7.45;100.00;96607.72;6195881;23;20016;-93
2023/02/19 02:48:52;;;;;;;7.50;4.55;;;;;;;7.42;100.00;96608.00;6196028;23;20043;-93
2023/02/19 02:51:33;;;;;;;7.70;4.30;;;;;;;7.35;100.00;96591.97;6194583;23;20091;-93
2023/02/19 02:56:58;;;;;;;5.30;3.70;;;;;;;7.33;100.00;96593.88;6218925;23;20742;-93
2023/02/19 02:59:31;;;;;;;6.07;4.10;;;;;;;7.32;100.00;96600.09;6195551;23;20014;-93
2023/02/19 03:02:19;;;;;;;6.73;3.90;;;;;;;7.30;100.00;96594.16;6222999;23;20047;-93
2023/02/19 03:08:13;;;;;;;5.80;3.77;;;;;;;7.32;100.00;96589.63;6221992;23;20020;-93
2023/02/19 03:10:52;;;;;;;6.30;3.47;;;;;;;7.27;100.00;96592.59;6197685;23;20097;-93
2023/02/19 03:19:24;;;;;;;4.93;3.30;;;;;;;7.26;100.00;96587.53;6224456;23;20008;-93
2023/02/19 03:21:58;;;;;;;6.13;3.43;;;;;;;7.27;100.00;96579.53;6221046;23;20019;-93
2023/02/19 03:27:18;;;;;;;5.50;3.43;;;;;;;7.22;100.00;96588.75;6221294;23;20019;-93
2023/02/19 03:29:50;;;;;;;4.70;3.10;;;;;;;7.22;100.00;96592.19;6196273;23;20005;-93
2023/02/19 03:32:33;;;;;;;5.03;3.17;;;;;;;7.23;100.00;96587.78;6216884;23;20028;-93
2023/02/19 03:35:26;;;;;;;5.30;3.30;;;;;;;7.23;100.00;96582.53;6195677;23;20020;-93
2023/02/19 03:38:01;;;;;;;5.25;3.20;;;;;;;7.16;100.00;96584.84;6196715;23;20008;-93
2023/02/19 03:44:34;;;;;;;5.10;3.13;;;;;;;7.14;100.00;96576.28;6272285;22;20035;-93
2023/02/19 03:47:14;;;;;;;4.90;3.27;;;;;;;7.14;100.00;96568.44;6219063;23;20075;-93
2023/02/19 03:50:06;;;;;;;4.70;3.27;;;;;;;7.13;100.00;96566.81;6217909;23;20007;-93
2023/02/19 03:52:41;;;;;;;4.87;3.10;;;;;;;7.14;100.00;96568.44;6181373;23;20035;-93
2023/02/19 03:55:26;;;;;;;5.50;3.40;;;;;;;7.13;100.00;96579.88;6198170;23;20020;-93
2023/02/19 03:58:02;;;;;;;3.90;2.57;;;;;;;7.10;100.00;96574.91;6195982;23;20012;-93
2023/02/19 04:00:51;;;;;;;7.30;3.40;;;;;;;7.13;100.00;96579.06;6195370;23;20093;-93
2023/02/19 04:03:43;;;;;;;4.13;2.80;;;;;;;7.16;100.00;96584.84;6194904;23;20015;-93
2023/02/19 04:06:16;;;;;;;4.47;2.67;;;;;;;7.12;100.00;96593.91;6193730;23;20016;-93
2023/02/19 04:08:48;;;;;;;5.43;2.58;;;;;;;7.14;100.00;96588.53;6194555;23;20008;-93
2023/02/19 04:11:18;;;;;;;4.83;2.63;;;;;;;7.15;100.00;96592.84;6194232;23;20026;-93
2023/02/19 04:13:53;;;;;;;4.10;2.47;;;;;;;7.12;100.00;96596.53;6193394;23;20008;-93
2023/02/19 04:16:23;;;;;;;3.67;2.17;;;;;;;7.07;100.00;96593.47;6193604;23;20016;-93
2023/02/19 04:18:53;;;;;;;4.67;2.27;;;;;;;7.09;100.00;96604.63;6219341;23;20040;-93
2023/02/19 04:21:23;;;;;;;3.43;2.00;;;;;;;7.08;100.00;96600.38;6194476;23;20028;-93
2023/02/19 04:23:49;;;;;;;4.37;2.20;;;;;;;7.12;100.00;96598.31;6195768;23;20016;-93
2023/02/19 04:26:17;;;;;;;3.93;2.07;;;;;;;7.12;100.00;96607.00;6203169;23;20063;-93
2023/02/19 04:28:43;;;;;;;2.80;1.70;;;;;;;7.09;100.00;96612.47;6213088;22;19996;-93
2023/02/19 04:31:15;;;;;;;2.93;1.70;;;;;;;7.07;100.00;96617.81;6230775;23;20019;-93
2023/02/19 04:33:45;;;;;;;1.60;1.20;;;;;;;7.02;100.00;96622.63;6194238;23;20016;-93
2023/02/19 04:36:11;;;;;;;1.57;1.00;;;;;;;7.08;100.00;96631.75;6193324;23;20066;-93
2023/02/19 04:38:36;;;;;;;1.87;1.13;;;;;;;6.98;100.00;96636.09;6193746;23;20043;-93
2023/02/19 04:41:07;;;;;;;1.20;0.70;;;;;;;7.00;100.00;96642.00;6193166;23;20012;-92
2023/02/19 04:43:33;;;;;;;1.10;0.90;;;;;;;6.97;100.00;96644.88;6193360;23;20054;-93
2023/02/19 04:46:00;;;;;;;1.57;0.70;;;;;;;6.92;100.00;96640.03;6194036;23;20012;-93
2023/02/19 04:48:26;;;;;;;0.83;0.50;;;;;;;6.89;100.00;96639.47;6193876;23;20008;-93
2023/02/19 04:50:52;;;;;;;1.23;0.70;;;;;;;6.90;100.00;96652.38;6219761;23;20012;-92
2023/02/19 04:53:19;;;;;;;1.10;0.63;;;;;;;6.83;100.00;96654.69;6195395;23;20509;-93
2023/02/19 04:55:45;;;;;;;1.30;0.77;;;;;;;6.89;100.00;96652.53;6196509;23;20348;-92
2023/02/19 04:58:11;;;;;;;1.00;0.80;;;;;;;6.77;100.00;96657.81;6198234;23;20000;-93
2023/02/19 05:00:41;;;;;;;1.73;1.00;;;;;;;6.75;100.00;96662.31;6192784;23;20016;-92
2023/02/19 05:03:06;;;;;;;1.33;0.90;;;;;;;6.74;100.00;96663.28;6192567;23;20023;-93
2023/02/19 05:05:41;;;;;;;1.60;0.83;;;;;;;6.77;100.00;96657.81;6191955;23;20044;-92
2023/02/19 05:08:06;;;;;;;4.13;0.93;;;;;;;6.75;100.00;96666.72;6191659;23;20011;-92
2023/02/19 05:10:33;;;;;;;1.50;0.80;;;;;;;6.69;100.00;96656.78;6217904;23;20020;-92
2023/02/19 05:12:59;;;;;;;1.33;0.83;;;;;;;6.75;100.00;96677.19;6218402;23;20392;-92
2023/02/19 05:15:32;;;;;;;1.30;0.73;;;;;;;6.63;100.00;96673.75;6218384;23;20035;-92
2023/02/19 05:17:57;;;;;;;1.58;0.85;;;;;;;6.64;100.00;96680.69;6193020;23;20005;-92
2023/02/19 05:20:31;;;;;;;1.20;0.70;;;;;;;6.64;100.00;96670.22;6219446;23;20012;-92
2023/02/19 05:22:57;;;;;;;0.88;0.50;;;;;;;6.70;100.00;96674.94;6195458;23;20455;-92
2023/02/19 05:25:36;;;;;;;1.23;0.60;;;;;;;6.67;100.00;96669.94;6194433;23;20000;-90
2023/02/19 05:28:17;;;;;;;0.50;0.40;;;;;;;6.62;100.00;96679.97;6193339;23;20012;-93
2023/02/19 05:30:45;;;;;;;0.73;0.53;;;;;;;6.57;100.00;96687.31;6193131;23;20324;-93
2023/02/19 05:33:16;;;;;;;0.70;0.60;;;;;;;6.49;100.00;96684.50;6193094;23;20069;-92
2023/02/19 05:35:44;;;;;;;0.80;0.60;;;;;;;6.46;100.00;96687.38;6209390;23;20093;-92
2023/02/19 05:38:10;;;;;;;1.10;0.70;;;;;;;6.44;100.00;96684.03;6220930;23;20028;-92
2023/02/19 05:40:40;;;;;;;1.23;0.77;;;;;;;6.46;100.00;96682.13;6192380;23;20027;-92
2023/02/19 05:43:07;;;;;;;1.43;0.93;;;;;;;6.47;100.00;96689.00;6192867;23;20023;-92
2023/02/19 05:45:44;;;;;;;1.30;0.90;;;;;;;6.41;100.00;96681.69;6217962;23;20045;-92
2023/02/19 05:48:11;;;;;;;2.10;1.07;;;;;;;6.39;100.00;96681.78;6192524;23;20428;-93
2023/02/19 05:50:37;;;;;;;1.93;1.07;;;;;;;6.33;100.00;96671.84;6217053;23;20024;-91
2023/02/19 05:53:12;;;;;;;1.73;0.70;;;;;;;6.25;100.00;96677.66;6219390;23;20399;-93
2023/02/19 05:55:41;;;;;;;1.10;0.90;;;;;;;6.26;100.00;96665.44;6193905;23;20012;-93
2023/02/19 05:58:06;;;;;;;2.47;0.80;;;;;;;6.27;100.00;96667.09;6218396;23;20019;-93
2023/02/19 06:00:32;;;;;;;1.80;1.10;;;;;;;6.25;100.00;96663.78;6195490;23;20011;-92
2023/02/19 06:03:00;;;;;;;1.33;1.03;;;;;;;6.28;100.00;96663.53;6221008;23;20063;-93
2023/02/19 06:05:26;;;;;;;1.90;1.07;;;;;;;6.29;100.00;96657.38;6195974;23;20095;-92
2023/02/19 06:07:55;;;;;;;2.47;1.30;;;;;;;6.30;100.00;96662.44;6195953;23;20008;-93
2023/02/19 06:10:22;;;;;;;1.80;1.20;;;;;;;6.25;100.00;96659.38;6195346;23;20466;-93
2023/02/19 06:12:54;;;;;;;2.80;1.50;;;;;;;6.27;100.00;96672.31;6203856;23;20047;-93
2023/02/19 06:15:20;;;;;;;2.33;1.37;;;;;;;6.23;100.00;96666.50;6212203;22;20028;-93
2023/02/19 06:17:47;;;;;;;2.17;1.30;;;;;;;6.21;100.00;96657.16;6204312;23;20012;-93
2023/02/19 06:20:12;;;;;;;2.03;1.30;;;;;;;6.24;100.00;96673.41;6219219;23;20088;-93
2023/02/19 06:22:38;;;;;;;1.80;1.00;;;;;;;6.22;100.00;96657.03;6220268;23;20019;-92
2023/02/19 06:25:11;;;;;;;2.37;1.30;;;;;;;6.19;100.00;96675.53;6246944;23;20083;-93
2023/02/19 06:27:38;;;;;;;2.88;1.38;;;;;;;6.20;100.00;96674.56;6221818;23;20359;-93
2023/02/19 06:30:04;;;;;;;1.50;1.20;;;;;;;6.17;100.00;96667.00;6197506;23;20012;-93
2023/02/19 06:32:29;;;;;;;1.97;1.10;;;;;;;6.23;100.00;96676.94;6197686;23;20008;-93
2023/02/19 06:35:01;;;;;;;2.30;1.13;;;;;;;6.26;100.00;96676.72;6223591;23;20007;-93
2023/02/19 06:37:26;;;;;;;1.00;0.60;;;;;;;6.26;100.00;96668.06;6221568;23;20712;-93
2023/02/19 06:39:52;;;;;;;1.20;0.80;;;;;;;6.27;100.00;96674.94;6220358;23;20016;-93
2023/02/19 06:42:19;;;;;;;1.33;0.80;;;;;;;6.26;100.00;96687.16;6223361;23;20447;-94
2023/02/19 06:44:45;;;;;;;1.87;1.00;;;;;;;6.26;100.00;96695.00;6225859;23;20082;-93
2023/02/19 06:47:10;;;;;;;1.80;0.90;;;;;;;6.25;100.00;96700.34;6197065;23;20092;-93
2023/02/19 06:50:02;;;;;;;1.93;1.07;;;;;;;6.26;100.00;96721.09;6194599;23;20068;-93
2023/02/19 06:52:28;;;;;;;1.07;0.80;;;;;;;6.25;100.00;96714.25;6194152;23;20024;-93
2023/02/19 06:54:53;;;;;;;1.60;1.00;;;;;;;6.31;100.00;96728.59;6219959;23;20091;-93
2023/02/19 06:57:19;;;;;;;1.43;1.03;;;;;;;6.30;100.00;96734.75;6220542;23;20008;-94
2023/02/19 06:59:45;;;;;;;1.83;1.00;;;;;;;6.30;100.00;96735.59;6194711;23;20008;-93
2023/02/19 07:02:11;;;;;;;1.73;1.10;;;;;;;6.33;100.00;96740.56;6220825;23;20019;-93
2023/02/19 07:04:37;;;;;;;2.17;1.23;;;;;;;6.35;100.00;96743.91;6220079;23;20016;-93
2023/02/19 07:07:04;;;;;;;1.47;0.90;;;;;;;6.34;100.00;96749.25;6231392;23;20023;-94
2023/02/19 07:09:31;;;;;;;1.37;0.80;;;;;;;6.44;100.00;96751.97;6230406;23;20028;-93
2023/02/19 07:11:56;;;;;;;2.57;1.10;;;;;;;6.45;100.00;96749.25;6232519;23;20016;-93
2023/02/19 07:14:22;;;;;;;1.53;0.93;;;;;;;6.42;100.00;96749.47;6205002;23;20016;-94
2023/02/19 07:16:48;;;;;;;1.67;0.80;;;;;;;6.54;100.00;96745.09;6203944;23;20403;-93
2023/02/19 07:19:14;;;;;;;2.33;1.10;;;;;;;6.56;100.00;96746.59;6228740;23;20015;-94
2023/02/19 07:21:41;;;;;;;1.53;0.90;;;;;;;6.51;100.00;96747.94;6221660;23;20016;-94
2023/02/19 07:24:07;;;;;;;1.63;0.90;;;;;;;6.51;100.00;96753.16;6221319;23;20012;-93
2023/02/19 07:26:40;;;;;;;1.43;0.93;;;;;;;6.50;100.00;96741.84;6195176;22;20019;-93
2023/02/19 07:29:06;;;;;;;2.63;1.40;;;;;;;6.56;100.00;96759.66;6194694;23;20082;-93
2023/02/19 07:31:32;;;;;;;1.97;1.10;;;;;;;6.52;100.00;96757.44;6224554;23;20012;-93
2023/02/19 07:33:58;;;;;;;2.23;0.83;;;;;;;6.55;100.00;96757.19;6222573;23;20019;-93
2023/02/19 07:36:24;;;;;;;1.37;0.90;;;;;;;6.51;100.00;96759.22;6222726;23;20012;-93
2023/02/19 07:38:57;;;;;;;1.97;0.97;;;;;;;6.53;100.00;96766.91;6197292;23;20076;-93
2023/02/19 07:41:24;;;;;;;2.08;1.27;;;;;;;6.50;100.00;96756.69;6222121;23;20016;-93
2023/02/19 07:47:37;;;;;;;1.97;1.00;;;;;;;6.55;100.00;96763.25;6248866;23;20109;-93
2023/02/19 07:50:07;;;;;;;2.63;1.10;;;;;;;6.60;100.00;96765.47;6197166;23;20447;-92
2023/02/19 07:52:41;;;;;;;5.47;1.47;;;;;;;6.59;100.00;96769.88;6222017;23;20012;-92
2023/02/19 07:55:07;;;;;;;2.13;1.10;;;;;;;6.67;100.00;96774.47;6222595;23;20099;-92
2023/02/19 07:57:33;;;;;;;3.30;1.67;;;;;;;6.70;100.00;96782.09;6197560;23;20003;-92
2023/02/19 07:59:59;;;;;;;5.73;2.27;;;;;;;6.63;100.00;96773.06;6205877;23;20012;-92
2023/02/19 08:05:18;;;;;;;3.05;1.58;;;;;;;6.63;100.00;96782.69;6221507;23;20039;-92
2023/02/19 08:07:43;;;;;;;2.77;1.50;;;;;;;6.69;100.00;96793.50;6196317;23;20078;-93
2023/02/19 08:16:52;;;;;;;13.13;6.03;;;;;;;6.81;100.00;96796.94;6247388;23;20095;-92
2023/02/19 08:19:18;;;;;;;5.80;2.63;;;;;;;6.74;100.00;96800.97;6196763;23;20073;-92
2023/02/19 08:22:09;;;;;;;2.87;1.87;;;;;;;6.75;100.00;96800.88;6221569;23;20448;-93
2023/02/19 08:24:56;;;;;;;3.07;2.07;;;;;;;6.76;100.00;96799.06;6196896;23;20019;-92
2023/02/19 08:31:10;;;;;;;3.03;1.80;;;;;;;6.78;100.00;96803.25;6248190;22;20019;-93
2023/02/19 08:33:37;;;;;;;3.23;1.60;;;;;;;6.75;100.00;96808.72;6221957;23;20012;-93
2023/02/19 08:36:05;;;;;;;3.10;1.70;;;;;;;6.78;100.00;96813.69;6221842;23;20015;-93
2023/02/19 08:38:34;;;;;;;3.27;1.83;;;;;;;6.76;100.00;96809.53;6196161;23;20016;-92
2023/02/19 08:41:08;;;;;;;4.00;1.90;;;;;;;6.80;100.00;96818.78;6196202;23;20023;-92
2023/02/19 08:43:34;;;;;;;3.00;1.73;;;;;;;6.77;100.00;96827.72;6199140;23;20019;-93
2023/02/19 08:46:32;;;;;;;2.90;1.60;;;;;;;6.82;100.00;96836.03;6224564;23;20019;-93
2023/02/19 08:49:03;;;;;;;2.10;1.40;;;;;;;6.84;100.00;96839.34;6196366;23;20016;-92
2023/02/19 08:51:29;;;;;;;3.57;1.90;;;;;;;6.84;100.00;96838.50;6221342;23;20093;-92
2023/02/19 08:53:55;;;;;;;3.57;2.10;;;;;;;6.94;100.00;96843.84;6196392;23;20008;-93
2023/02/19 08:56:23;;;;;;;3.67;2.20;;;;;;;7.12;100.00;96846.78;6196465;23;20012;-93
2023/02/19 08:58:55;;;;;;;3.57;2.00;;;;;;;7.13;100.00;96851.06;6198258;23;20083;-93
2023/02/19 09:01:43;;;;;;;5.43;2.55;;;;;;;7.12;100.00;96857.25;6221305;23;20069;-93
2023/02/19 09:04:13;;;;;;;2.83;1.80;;;;;;;7.13;100.00;96854.50;6196396;23;20034;-93
2023/02/19 09:06:41;;;;;;;3.90;1.70;;;;;;;7.15;100.00;96857.84;6221092;23;20019;-92
2023/02/19 09:09:09;;;;;;;3.17;2.07;;;;;;;7.18;100.00;96849.75;6196771;23;20015;-92
2023/02/19 09:11:56;;;;;;;3.87;1.90;;;;;;;7.30;100.00;96855.75;6223229;23;20004;-92
2023/02/19 09:14:22;;;;;;;4.73;2.00;;;;;;;7.29;100.00;96854.94;6222133;23;20015;-92
2023/02/19 09:20:35;;;;;;;4.70;2.07;;;;;;;7.47;100.00;96860.47;6256756;23;20027;-93
2023/02/19 09:23:01;;;;;;;3.67;2.03;;;;;;;7.39;100.00;96856.81;6230651;23;20012;-93
2023/02/19 09:25:38;;;;;;;4.57;2.13;;;;;;;7.41;100.00;96860.13;6225650;23;20020;-92
2023/02/19 09:28:34;;;;;;;5.70;1.67;;;;;;;7.40;100.00;96863.69;6222824;23;20091;-92
2023/02/19 09:31:04;;;;;;;2.47;1.20;;;;;;;7.48;100.00;96874.41;6222189;23;20090;-92
2023/02/19 09:33:49;;;;;;;3.23;1.80;;;;;;;7.45;100.00;96878.09;6196979;23;20732;-93
2023/02/19 09:36:15;;;;;;;4.30;2.00;;;;;;;7.49;100.00;96881.28;6222410;23;20015;-93
2023/02/19 09:39:03;;;;;;;5.73;2.10;;;;;;;7.51;100.00;96874.97;6196368;23;20008;-92
2023/02/19 09:41:56;;;;;;;5.57;1.87;;;;;;;7.60;100.00;96883.84;6232336;22;20099;-93
2023/02/19 09:44:35;;;;;;;3.50;1.73;;;;;;;7.61;100.00;96895.97;6202180;23;20039;-92
2023/02/19 09:47:06;;;;;;;2.70;1.50;;;;;;;7.59;100.00;96892.66;6210722;23;20012;-92
2023/02/19 09:49:48;;;;;;;3.80;1.90;;;;;;;7.66;100.00;96893.81;6218241;23;20047;-92
2023/02/19 09:52:34;;;;;;;2.30;1.33;;;;;;;7.56;100.00;96898.16;6222976;23;20004;-91
2023/02/19 09:55:16;;;;;;;6.90;1.90;;;;;;;7.65;100.00;96902.66;6197872;23;20081;-92
2023/02/19 09:57:43;;;;;;;4.93;1.93;;;;;;;7.68;100.00;96902.41;6201147;23;20016;-92
2023/02/19 10:00:22;;;;;;;3.83;1.70;;;;;;;7.64;100.00;96900.97;6202991;23;20016;-91
2023/02/19 10:03:30;;;;;;;7.97;2.20;;;;;;;7.76;100.00;96899.97;6229101;23;20019;-91
2023/02/19 10:06:11;;;;;;;4.93;1.70;;;;;;;7.80;100.00;96901.38;6200035;23;20020;-91
2023/02/19 10:08:38;;;;;;;3.60;1.70;;;;;;;7.71;100.00;96902.16;6223189;23;20008;-90
2023/02/19 10:11:22;;;;;;;3.57;1.40;;;;;;;7.89;100.00;96899.81;6223711;23;20025;-91
2023/02/19 10:14:07;;;;;;;4.18;1.48;;;;;;;8.05;100.00;96896.75;6199745;23;20103;-92
2023/02/19 10:16:49;;;;;;;3.00;1.30;;;;;;;7.74;100.00;96894.03;6200400;23;20047;-91
2023/02/19 10:19:15;;;;;;;2.63;1.27;;;;;;;7.85;100.00;96892.34;6222295;23;20455;-90
2023/02/19 10:21:41;;;;;;;3.50;1.30;;;;;;;7.90;100.00;96882.31;6197860;23;20004;-92
2023/02/19 10:24:15;;;;;;;2.23;1.33;;;;;;;7.97;100.00;96881.66;6227245;23;20082;-93
2023/02/19 10:26:41;;;;;;;2.70;1.57;;;;;;;7.94;100.00;96875.84;6201369;23;20022;-92
2023/02/19 10:29:09;;;;;;;3.40;1.47;;;;;;;8.07;100.00;96881.72;6224088;23;20099;-90
2023/02/19 10:31:35;;;;;;;5.30;2.10;;;;;;;8.22;100.00;96895.34;6226859;23;20556;-93
2023/02/19 10:34:05;;;;;;;5.57;1.70;;;;;;;8.08;100.00;96903.50;6198317;23;20047;-93
2023/02/19 10:36:38;;;;;;;5.70;2.27;;;;;;;7.95;100.00;96914.19;6198164;23;20084;-90
2023/02/19 10:39:20;;;;;;;6.55;2.00;;;;;;;7.96;100.00;96905.38;6196583;23;20012;-90
2023/02/19 10:45:42;;;;;;;9.07;4.03;;;;;;;7.92;100.00;96907.41;6263197;23;20031;-90
2023/02/19 10:48:23;;;;;;;10.10;4.47;;;;;;;7.99;100.00;96907.75;6261940;22;20016;-92
2023/02/19 10:50:56;;;;;;;4.43;1.80;;;;;;;8.12;100.00;96911.00;6210696;23;20725;-90
2023/02/19 10:53:29;;;;;;;;;;;;;;;8.11;100.00;96927.66;6198532;23;20011;-90
2023/02/19 10:56:32;;;;;;;5.17;1.53;;;;;;;8.22;100.00;96932.03;6200539;23;19907;-88
2023/02/19 10:59:18;;;;;;;6.10;1.50;;;;;;;8.13;100.00;96933.63;6201286;23;20008;-88
2023/02/19 11:02:24;;;;;;;5.47;1.67;;;;;;;8.27;100.00;96922.81;6202992;23;20020;-91
2023/02/19 11:05:28;;;;;;;4.63;1.57;;;;;;;8.29;100.00;96921.88;6199250;23;20043;-92
2023/02/19 11:10:43;;;;;;;3.53;1.10;;;;;;;8.20;100.00;96924.28;6259341;22;20110;-88
2023/02/19 11:13:32;;;;;;;6.00;2.33;;;;;;;8.26;100.00;96910.69;6167309;23;20044;-89
2023/02/19 11:16:02;;;;;;;4.77;1.57;;;;;;;8.32;100.00;96906.72;6166074;23;20020;-87
2023/02/19 11:18:34;;;;;;;3.73;1.13;;;;;;;8.34;100.00;96909.19;6190887;23;20868;-89
2023/02/19 11:21:24;;;;;;;3.63;1.27;;;;;;;8.33;100.00;96907.56;6165657;23;20012;-89
2023/02/19 11:23:50;;;;;;;7.37;3.37;;;;;;;8.43;100.00;96919.78;6163262;23;20013;-88
2023/02/19 11:26:30;;;;;;;5.40;1.87;;;;;;;8.30;100.00;96915.66;6139289;23;20016;-86
2023/02/19 11:29:01;;;;;;;4.50;1.50;;;;;;;8.26;100.00;96920.34;6107496;23;20083;-86
2023/02/19 11:31:31;;;;;;;2.47;1.10;;;;;;;8.21;100.00;96925.94;6098465;23;20866;-86
2023/02/19 11:34:20;;;;;;;4.87;1.40;;;;;;;8.09;100.00;96926.16;6102892;23;20898;-85
2023/02/19 11:36:53;;;;;;;6.30;1.70;;;;;;;7.95;100.00;96927.28;6130581;23;20039;-86
2023/02/19 11:39:24;;;;;;;10.57;3.63;;;;;;;7.90;100.00;96927.66;6162296;23;20013;-86
2023/02/19 11:42:31;;;;;;;6.90;2.40;;;;;;;7.92;100.00;96917.06;6161955;23;20033;-84
2023/02/19 11:45:17;;;;;;;11.77;4.73;;;;;;;7.93;100.00;96923.94;6164001;23;20186;-86
2023/02/19 11:48:08;;;;;;;7.57;2.33;;;;;;;8.09;100.00;96926.16;6165785;23;20050;-86
2023/02/19 11:51:15;;;;;;;5.33;1.70;;;;;;;8.18;100.00;96935.84;6182970;23;20009;-85
2023/02/19 11:53:48;;;;;;;6.80;1.80;;;;;;;8.29;100.00;96934.97;6217075;22;20015;-85
2023/02/19 11:56:17;;;;;;;2.78;1.30;;;;;;;8.34;100.00;96930.16;6162331;23;20396;-86
2023/02/19 11:59:16;;;;;;;5.60;1.80;;;;;;;8.54;100.00;96941.63;6162264;23;20086;-85
2023/02/19 12:02:03;;;;;;;4.70;1.50;;;;;;;8.41;100.00;96936.59;6162603;23;20017;-85
2023/02/19 12:04:59;;;;;;;10.83;4.17;;;;;;;8.61;100.00;96927.03;6162128;23;20039;-85
2023/02/19 12:07:54;;;;;;;6.53;1.43;;;;;;;8.57;100.00;96936.13;6151958;23;20335;-87
2023/02/19 12:10:26;;;;;;;5.70;1.80;;;;;;;8.65;100.00;96931.06;6112035;23;20020;-86
2023/02/19 12:13:30;;;;;;;5.70;2.13;;;;;;;8.73;100.00;96928.63;6136564;23;20083;-87
2023/02/19 12:16:14;;;;;;;6.87;2.20;;;;;;;8.67;100.00;96922.13;6122984;23;20070;-87
2023/02/19 12:18:57;;;;;;;5.03;1.70;;;;;;;8.78;100.00;96928.22;6113842;23;20016;-86
2023/02/19 12:21:34;;;;;;;5.23;1.40;;;;;;;8.89;100.00;96925.53;6140743;23;20067;-87
2023/02/19 12:24:26;;;;;;;4.87;1.40;;;;;;;8.93;100.00;96912.03;6171082;23;20050;-87
2023/02/19 12:27:20;;;;;;;5.33;1.33;;;;;;;9.01;100.00;96913.97;6105414;23;20103;-86
2023/02/19 12:30:15;;;;;;;2.45;1.15;;;;;;;8.92;100.00;96909.50;6132572;23;20015;-86
2023/02/19 12:32:56;;;;;;;4.80;2.03;;;;;;;8.96;100.00;96918.81;6135805;23;20020;-88
2023/02/19 12:35:29;;;;;;;3.80;1.23;;;;;;;8.70;100.00;96921.84;6131908;23;20095;-86
2023/02/19 12:38:15;;;;;;;4.65;1.23;;;;;;;8.62;100.00;96915.63;6138655;23;20036;-86
2023/02/19 12:41:09;;;;;;;4.67;1.10;;;;;;;8.66;100.00;96909.97;6165055;23;20016;-86
2023/02/19 12:44:16;;;;;;;;;;;;;;;;;;;;;
2023/02/19 12:47:05;;;;;;;;;;;;;;;8.87;100.00;96914.34;6199018;23;20016;-86
2023/02/19 12:49:49;;;;;;;2.93;1.30;;;;;;;9.38;100.00;96906.34;6168457;23;19981;-87
2023/02/19 12:56:22;;;;;;;3.57;1.10;;;;;;;9.62;100.00;96897.25;6178249;23;20130;-87
2023/02/19 12:59:25;;;;;;;;;;;;;;;;;;;;;
2023/02/19 13:02:18;;;;;;;2.47;1.20;;;;;;;9.52;100.00;96889.34;6235545;22;20011;-87
2023/02/19 13:04:50;;;;;;;5.03;1.37;;;;;;;9.02;100.00;96897.28;6185363;23;20008;-87